Data for 03/18/2007

Time Sea-Level Adjusted Pressure Absolute Pressure Temperature Relative Humidity Dew Point   
(mb) (inHg) (mb) (inHg) (C) (F) (%) (C) (F)
00:05 1013 29.91 842 24.86 11 51.8 36 -3.6 25.6
00:10 1013 29.91 842 24.86 10.8 51.5 36 -3.6 25.5
00:15 1013 29.91 842 24.86 10.6 51.1 38 -3.2 26.2
00:20 1013 29.91 842 24.86 10.4 50.8 37 -3.6 25.5
00:25 1013 29.91 842 24.86 10.5 50.8 36 -3.8 25.1
00:30 1013 29.91 842 24.86 9.9 49.7 41 -2.8 27
00:35 1013 29.91 842 24.86 8.7 47.6 44 -3 26.7
00:40 1013 29.91 842 24.86 8.1 46.6 46 -2.9 26.7
00:45 1013 29.91 842 24.86 7.7 45.9 46 -3.1 26.4
00:50 1013 29.91 842 24.86 7.8 46.1 46 -3.1 26.4
00:55 1013 29.91 842 24.86 7.8 46.1 45 -3.4 25.9
01:00 1013 29.91 842 24.86 8.4 47.2 42 -3.8 25.2
01:05 1013 29.91 842 24.86 8.9 48 41 -3.6 25.5
01:10 1013 29.91 842 24.86 8.9 47.9 41 -3.5 25.7
01:15 1013 29.91 842 24.86 8.7 47.7 43 -3.3 26.1
01:20 1013 29.91 842 24.86 8.4 47.1 43 -3.4 25.9
01:25 1013 29.91 842 24.86 8.3 46.9 44 -3.3 26
01:30 1013 29.91 842 24.86 8.2 46.7 44 -3.4 25.9
01:35 1013 29.91 842 24.86 8 46.4 44 -3.6 25.5
01:40 1013 29.91 842 24.86 8.3 47 42 -3.8 25.1
01:45 1013 29.91 842 24.86 8.5 47.2 43 -3.4 26
01:50 1013 29.91 842 24.86 8.7 47.6 39 -4.5 24
01:55 1013 29.91 842 24.86 9.3 48.8 38 -4.1 24.6
02:00 1013 29.91 842 24.86 9.3 48.7 40 -3.8 25.2
02:05 1013 29.91 842 24.86 8.8 47.9 42 -3.3 26.1
02:10 1013 29.91 842 24.86 8.3 47 43 -3.5 25.8
02:15 1013 29.91 842 24.86 8 46.4 45 -3.3 26.1
02:20 1013 29.91 842 24.86 7.6 45.8 46 -3.2 26.2
02:25 1013 29.91 842 24.86 7.3 45.1 46 -3.7 25.4
02:30 1013 29.91 842 24.86 7.3 45.1 45 -3.9 25
02:35 1013 29.91 842 24.86 7.4 45.4 46 -3.5 25.7
02:40 1013 29.91 842 24.86 6.6 44 49 -3.2 26.3
02:45 1013 29.91 842 24.86 5.7 42.3 53 -3.1 26.5
02:50 1013 29.91 842 24.86 4.9 40.9 56 -3.1 26.4
02:55 1013 29.91 842 24.86 4.8 40.7 54 -3.6 25.5
03:00 1013 29.91 842 24.86 5.2 41.3 55 -3.2 26.2
03:05 1013 29.91 842 24.86 5.2 41.3 52 -3.9 24.9
03:10 1013 29.91 842 24.86 5.6 42.2 53 -3.2 26.2
03:15 1013 29.91 842 24.86 5.3 41.6 52 -3.7 25.3
03:20 1013 29.91 842 24.86 6.5 43.7 45 -4.4 24
03:25 1013 29.91 842 24.86 7.5 45.5 43 -4.1 24.5
03:30 1013 29.91 842 24.86 7.6 45.6 44 -3.9 25.1
03:35 1013 29.91 842 24.86 7 44.7 48 -3.4 26
03:40 1013 29.91 842 24.86 6.5 43.8 49 -3.5 25.7
03:45 1013 29.91 842 24.86 6.4 43.6 48 -3.7 25.3
03:50 1013 29.91 842 24.86 6.5 43.7 47 -4.1 24.7
03:55 1013 29.91 842 24.86 6.7 44.1 46 -3.9 24.9
04:00 1013 29.91 842 24.86 6.7 44.1 48 -3.6 25.5
04:05 1013 29.91 842 24.86 6.1 43 51 -3.3 26.1
04:10 1013 29.91 842 24.86 6.1 43.1 50 -3.6 25.5
04:15 1013 29.91 842 24.86 6.3 43.3 49 -3.7 25.3
04:20 1013 29.91 842 24.86 6.6 43.9 45 -4.4 24.1
04:25 1013 29.91 842 24.86 6.7 44.1 48 -3.6 25.6
04:30 1013 29.91 842 24.86 6.5 43.7 47 -3.9 25
04:35 1013 29.91 842 24.86 6.7 44 46 -4.1 24.5
04:40 1013 29.91 842 24.86 7.2 44.9 45 -4.1 24.6
04:45 1013 29.91 842 24.86 6.9 44.5 47 -3.5 25.7
04:50 1013 29.91 842 24.86 6.2 43.2 48 -3.9 24.9
04:55 1013 29.91 842 24.86 6.2 43.2 48 -3.9 25
05:00 1013 29.91 842 24.86 6.7 44.1 45 -4.3 24.2
05:05 1013 29.91 842 24.86 7 44.6 45 -4 24.8
05:10 1013 29.91 842 24.86 7.1 44.8 45 -4 24.8
05:15 1013 29.91 842 24.86 7.1 44.9 45 -4.1 24.7
05:20 1013 29.91 842 24.86 7.5 45.5 43 -4.3 24.2
05:25 1013 29.91 842 24.86 8.1 46.5 41 -4.3 24.3
05:30 1013 29.91 842 24.86 8.3 46.9 41 -4.1 24.6
05:35 1013 29.91 842 24.86 8.2 46.7 42 -4 24.8
05:40 1013 29.91 842 24.86 8.1 46.6 42 -4.1 24.7
05:45 1013 29.91 842 24.86 7.9 46.1 43 -3.9 25
05:50 1013 29.91 842 24.86 7.6 45.7 43 -4.1 24.6
05:55 1013 29.91 842 24.86 7.7 45.8 42 -4.3 24.2
06:00 1013 29.91 842 24.86 7.8 46.1 42 -4.3 24.3
06:05 1013 29.91 842 24.86 7.8 46 42 -4.3 24.3
06:10 1013 29.91 842 24.86 8 46.3 41 -4.4 24.1
06:15 1013 29.91 842 24.86 8 46.3 41 -4.4 24
06:20 1013 29.91 842 24.86 8.1 46.6 40 -4.6 23.7
06:25 1013 29.91 842 24.86 8.4 47.1 40 -4.5 23.8
06:30 1013 29.91 842 24.86 8.5 47.3 40 -4.5 24
06:35 1013 29.91 842 24.86 8.4 47.1 40 -4.4 24.1
06:40 1013 29.91 842 24.86 8.2 46.8 41 -4.2 24.5
06:45 1013 29.91 842 24.86 7.8 46 43 -4 24.8
06:50 1013 29.91 842 24.86 7.6 45.7 41 -4.6 23.6
06:55 1013 29.91 842 24.86 8.1 46.6 40 -4.6 23.8
07:00 1013 29.91 842 24.86 8.4 47.1 40 -4.5 23.8
07:05 1013 29.91 842 24.86 8.9 48 36 -5.3 22.5
07:10 1013 29.91 842 24.86 9.5 49.1 36 -4.8 23.3
07:15 1013 29.91 842 24.86 9.2 48.6 38 -4.2 24.4
07:20 1013 29.91 842 24.86 8.9 48 39 -4.2 24.5
07:25 1013 29.91 842 24.86 8.4 47.1 44 -3.1 26.4
07:30 1013 29.91 842 24.86 6.7 44.1 49 -3.3 26
07:35 1013 29.91 842 24.86 6.5 43.8 47 -4 24.8
07:40 1013 29.91 842 24.86 7.3 45.1 44 -4.3 24.3
07:45 1013 29.91 842 24.86 7.8 46.1 43 -3.9 24.9
07:50 1013 29.91 842 24.86 8 46.3 43 -3.8 25.2
07:55 1013 29.91 842 24.86 8.1 46.6 44 -3.4 25.8
08:00 1013 29.91 842 24.86 8 46.3 42 -4 24.8
08:05 1013 29.91 842 24.86 9 48.2 39 -4.3 24.3
08:10 1013 29.91 842 24.86 9.9 49.9 37 -4.2 24.5
08:15 1013 29.91 842 24.86 10.1 50.1 40 -2.9 26.7
08:20 1013 29.91 842 24.86 8.4 47 44 -3.1 26.4
08:25 1013 29.91 842 24.86 8.5 47.2 42 -3.7 25.4
08:30 1013 29.91 842 24.86 8.9 48 41 -3.6 25.4
08:35 1013 29.91 843 24.89 9.3 48.7 41 -3.4 26
08:40 1013 29.91 843 24.89 9.3 48.7 41 -3.3 26.1
08:45 1013 29.91 843 24.89 9 48.2 42 -3.1 26.4
08:50 1014 29.94 843 24.89 8.8 47.9 43 -3 26.6
08:55 1014 29.94 843 24.89 8.8 47.9 42 -3.3 26.1
09:00 1014 29.94 843 24.89 9.1 48.3 41 -3.5 25.8
09:05 1014 29.94 843 24.89 9.4 48.9 41 -3.1 26.4
09:10 1014 29.94 843 24.89 9.3 48.8 43 -2.6 27.4
09:15 1014 29.94 843 24.89 9 48.1 44 -2.7 27.2
09:20 1014 29.94 843 24.89 8.8 47.9 42 -3.3 26.1
09:25 1014 29.94 843 24.89 8.9 48.1 41 -3.5 25.8
09:30 1014 29.94 843 24.89 9 48.1 42 -3.3 26.1
09:35 1014 29.94 843 24.89 8.8 47.8 43 -3.2 26.2
09:40 1014 29.94 844 24.92 8.5 47.2 44 -2.9 26.7
09:45 1014 29.94 844 24.92 8.2 46.8 46 -2.7 27.2
09:50 1014 29.94 844 24.92 8 46.4 48 -2.4 27.6
09:55 1014 29.94 844 24.92 8 46.3 48 -2.3 27.8
10:00 1015 29.97 844 24.92 8 46.4 48 -2.2 28
10:05 1015 29.97 844 24.92 8 46.5 49 -2 28.3
10:10 1015 29.97 844 24.92 8 46.4 49 -1.9 28.5
10:15 1015 29.97 844 24.92 8 46.5 49 -1.9 28.5
10:20 1015 29.97 844 24.92 8.2 46.7 50 -1.6 29.1
10:25 1015 29.97 844 24.92 8.4 47.1 50 -1.5 29.3
10:30 1015 29.97 844 24.92 8.5 47.2 50 -1.2 29.8
10:35 1015 29.97 844 24.92 8.5 47.4 50 -1.2 29.9
10:40 1015 29.97 844 24.92 8.6 47.6 51 -1 30.2
10:45 1015 29.97 844 24.92 8.6 47.5 52 -0.7 30.7
10:50 1015 29.97 844 24.92 8.7 47.6 53 -0.3 31.5
10:55 1015 29.97 845 24.95 8.8 47.8 54 -0 31.9
11:00 1016 30 845 24.95 8.8 47.9 51 -0.6 30.9
11:05 1015 29.97 845 24.95 8.9 48 51 -0.7 30.7
11:10 1015 29.97 845 24.95 9 48.1 50 -0.8 30.6
11:15 1016 30 845 24.95 9.2 48.6 50 -0.6 30.9
11:20 1016 30 845 24.95 9.3 48.7 51 -0.4 31.3
11:25 1016 30 845 24.95 9.5 49.2 50 -0.4 31.4
11:30 1016 30 845 24.95 9.6 49.2 49 -0.5 31
11:35 1016 30 845 24.95 9.6 49.4 48 -0.9 30.4
11:40 1016 30 845 24.95 9.7 49.4 49 -0.5 31.2
11:45 1016 30 845 24.95 9.3 48.7 50 -0.5 31
11:50 1016 30 845 24.95 9.3 48.8 50 -0.4 31.2
11:55 1016 30 845 24.95 9.5 49 51 -0.2 31.6
12:00 1016 30 845 24.95 9.7 49.4 48 -0.6 30.9
12:05 1016 30 845 24.95 10 49.9 47 -0.7 30.7
12:10 1016 30 845 24.95 10.2 50.3 46 -0.8 30.5
12:15 1016 30 845 24.95 10.5 50.8 45 -0.9 30.3
12:20 1016 30 845 24.95 11 51.8 44 -0.8 30.5
12:25 1016 30 845 24.95 11.3 52.4 43 -0.8 30.6
12:30 1016 30 845 24.95 12 53.5 42 -0.5 31.1
12:35 1016 30 845 24.95 12 53.6 39 -1.5 29.4
12:40 1016 30 845 24.95 12.6 54.7 39 -1.1 30
12:45 1016 30 845 24.95 13.1 55.7 39 -0.5 31
12:50 1015 29.97 845 24.95 12.9 55.2 40 -0.5 31.2
12:55 1016 30 845 24.95 12.8 55.1 39 -0.7 30.8
13:00 1016 30 845 24.95 13.1 55.7 40 -0.1 31.7
13:05 1016 30 845 24.95 12.4 54.3 40 -0.7 30.8
13:10 1016 30 845 24.95 12.5 54.5 41 -0.4 31.2
13:15 1016 30 845 24.95 12.4 54.4 39 -1.1 30.1
13:20 1016 30 845 24.95 12.9 55.2 38 -1.1 30
13:25 1016 30 845 24.95 13.5 56.3 37 -0.9 30.4
13:30 1015 29.97 845 24.95 13.1 55.6 34 -2.4 27.6
13:35 1015 29.97 845 24.95 14.3 57.7 30 -2.9 26.9
13:40 1015 29.97 845 24.95 15 59.1 30 -2.2 28
13:45 1015 29.97 845 24.95 14.5 58 30 -2.9 26.8
13:50 1015 29.97 844 24.92 14.3 57.7 31 -2.5 27.5
13:55 1015 29.97 844 24.92 14.4 58 32 -2 28.3
14:00 1015 29.97 844 24.92 15.1 59.2 31 -1.6 29.1
14:05 1015 29.97 844 24.92 15.7 60.2 29 -2.2 28
14:10 1015 29.97 844 24.92 14.8 58.7 33 -1.3 29.6
14:15 1015 29.97 844 24.92 13.8 56.9 32 -2.4 27.6
14:20 1015 29.97 844 24.92 14.4 58 32 -2.2 28.1
14:25 1015 29.97 844 24.92 14.8 58.6 29 -3 26.6
14:30 1015 29.97 844 24.92 14.5 58 29 -3.1 26.4
14:35 1015 29.97 844 24.92 14.3 57.8 29 -3.2 26.2
14:40 1015 29.97 844 24.92 14.4 58 28 -3.6 25.5
14:45 1015 29.97 844 24.92 14.1 57.4 28 -3.9 25
14:50 1015 29.97 844 24.92 14.3 57.7 28 -4 24.8
14:55 1015 29.97 844 24.92 14.4 57.9 28 -4 24.8
15:00 1015 29.97 844 24.92 14.3 57.8 28 -4 24.7
15:05 1015 29.97 844 24.92 14.3 57.7 28 -3.9 25
15:10 1015 29.97 844 24.92 14.2 57.5 29 -3.8 25.2
15:15 1015 29.97 844 24.92 14.2 57.5 29 -3.7 25.3
15:20 1015 29.97 844 24.92 14.8 58.6 26 -4.3 24.2
15:25 1015 29.97 844 24.92 15.1 59.1 26 -4.2 24.5
15:30 1015 29.97 844 24.92 15.2 59.3 27 -3.8 25.1
15:35 1015 29.97 844 24.92 16.1 60.9 24 -4.5 23.8
15:40 1015 29.97 844 24.92 15.6 60.1 26 -4 24.8
15:45 1015 29.97 844 24.92 14.4 57.9 27 -4.4 24.1
15:50 1014 29.94 844 24.92 14.5 58.1 26 -4.9 23.2
15:55 1014 29.94 844 24.92 15.3 59.5 24 -4.9 23.2
16:00 1014 29.94 844 24.92 15.9 60.6 24 -4.5 23.8
16:05 1014 29.94 844 24.92 15.7 60.2 24 -4.5 23.9
16:10 1014 29.94 844 24.92 15.5 59.9 25 -4.5 23.9
16:15 1014 29.94 844 24.92 16 60.8 24 -4.5 23.9
16:20 1014 29.94 844 24.92 16.1 61 24 -4.3 24.3
16:25 1014 29.94 844 24.92 16.2 61.1 24 -4.2 24.5
16:30 1014 29.94 844 24.92 16.1 61 23 -4.7 23.5
16:35 1014 29.94 844 24.92 16.3 61.4 24 -4.3 24.2
16:40 1014 29.94 844 24.92 16 60.9 24 -4.2 24.4
16:45 1014 29.94 844 24.92 16 60.9 24 -4.6 23.8
16:50 1014 29.94 844 24.92 16.5 61.6 23 -4.4 24.1
16:55 1014 29.94 844 24.92 16.5 61.7 23 -4.3 24.2
17:00 1014 29.94 844 24.92 15.9 60.6 25 -4.2 24.4
17:05 1014 29.94 843 24.89 14.9 58.9 26 -4.5 23.9
17:10 1014 29.94 843 24.89 15.4 59.7 24 -4.9 23.2
17:15 1014 29.94 843 24.89 16 60.9 24 -4.5 23.8
17:20 1014 29.94 843 24.89 16.3 61.4 24 -4.4 24.1
17:25 1014 29.94 843 24.89 16.5 61.7 23 -4.5 23.9
17:30 1014 29.94 843 24.89 15.5 59.8 25 -4.5 23.8
17:35 1014 29.94 843 24.89 16.1 60.9 24 -4.5 24
17:40 1014 29.94 843 24.89 16.5 61.7 23 -4.3 24.2
17:45 1014 29.94 843 24.89 16.3 61.4 23 -4.6 23.7
17:50 1014 29.94 843 24.89 16.3 61.3 24 -4.5 23.9
17:55 1014 29.94 843 24.89 16.5 61.8 23 -4.5 23.8
18:00 1014 29.94 843 24.89 16.4 61.5 23 -4.6 23.7
18:05 1014 29.94 843 24.89 16.2 61.2 24 -4.5 23.9
18:10 1014 29.94 843 24.89 16 60.9 24 -4.5 24
18:15 1014 29.94 843 24.89 15.6 60.1 24 -4.6 23.7
18:20 1014 29.94 843 24.89 15 59.1 26 -4.2 24.4
18:25 1014 29.94 843 24.89 14.3 57.7 27 -4.5 24
18:30 1014 29.94 843 24.89 14.2 57.5 27 -4.5 23.9
18:35 1014 29.94 844 24.92 13.8 56.8 28 -4.5 23.9
18:40 1014 29.94 844 24.92 13.7 56.7 28 -4.5 23.9
18:45 1014 29.94 844 24.92 13.7 56.6 28 -4.5 23.9
18:50 1014 29.94 844 24.92 13.7 56.7 28 -4.6 23.7
18:55 1014 29.94 844 24.92 13.7 56.7 28 -4.4 24.1
19:00 1014 29.94 844 24.92 13.5 56.3 28 -4.5 24
19:05 1014 29.94 844 24.92 13.3 56 28 -4.6 23.7
19:10 1014 29.94 844 24.92 13.2 55.8 28 -4.7 23.6
19:15 1015 29.97 844 24.92 13.2 55.7 29 -4.5 23.9
19:20 1015 29.97 844 24.92 13.1 55.6 29 -4.5 23.9
19:25 1015 29.97 844 24.92 13 55.4 29 -4.7 23.5
19:30 1015 29.97 844 24.92 12.9 55.3 29 -4.7 23.6
19:35 1015 29.97 844 24.92 12.8 55.1 29 -4.8 23.3
19:40 1015 29.97 844 24.92 12.8 55 29 -4.7 23.5
19:45 1015 29.97 844 24.92 12.6 54.7 30 -4.5 23.9
19:50 1015 29.97 844 24.92 12.4 54.4 30 -4.6 23.7
19:55 1015 29.97 844 24.92 12.3 54.2 31 -4.2 24.5
20:00 1015 29.97 844 24.92 12.1 53.8 32 -4.1 24.6
20:05 1015 29.97 844 24.92 11.9 53.4 33 -3.7 25.3
20:10 1015 29.97 844 24.92 11 51.8 40 -2 28.5
20:15 1015 29.97 844 24.92 9.9 49.8 42 -2.5 27.6
20:20 1015 29.97 844 24.92 9.3 48.8 43 -2.5 27.6
20:25 1015 29.97 844 24.92 8.4 47.2 49 -1.6 29.1
20:30 1015 29.97 844 24.92 8.1 46.7 47 -2.3 27.8
20:35 1015 29.97 844 24.92 8.7 47.6 42 -3.4 25.9
20:40 1015 29.97 845 24.95 8.8 47.9 44 -2.7 27.1
20:45 1015 29.97 845 24.95 8.3 46.9 47 -2.2 28
20:50 1015 29.97 845 24.95 7.4 45.4 51 -2 28.5
20:55 1016 30 845 24.95 6.8 44.2 52 -2.4 27.8
21:00 1016 30 845 24.95 7.1 44.7 51 -2.3 27.9
21:05 1016 30 845 24.95 7.8 46.1 51 -1.6 29.1
21:10 1016 30 845 24.95 8.3 46.9 54 -0.5 31.1
21:15 1016 30 845 24.95 8.5 47.3 55 -0.1 31.9
21:20 1016 30 845 24.95 8.5 47.2 56 0.3 32.5
21:25 1016 30 845 24.95 8.3 47 57 0.3 32.5
21:30 1016 30 845 24.95 8.2 46.7 58 0.3 32.6
21:35 1016 30 845 24.95 8 46.3 59 0.4 32.7
21:40 1016 30 845 24.95 7.8 46.1 59 0.5 32.8
21:45 1016 30 845 24.95 7.8 46.1 59 0.4 32.7
21:50 1016 30 845 24.95 7.8 46.1 59 0.4 32.7
21:55 1016 30 845 24.95 7.8 46 59 0.4 32.7
22:00 1016 30 845 24.95 7.8 46 60 0.4 32.8
22:05 1016 30 845 24.95 7.6 45.8 60 0.5 32.9
22:10 1016 30 845 24.95 7.5 45.6 61 0.5 32.9
22:15 1016 30 845 24.95 7.4 45.3 61 0.5 32.8
22:20 1016 30 845 24.95 7.3 45.2 62 0.5 32.9
22:25 1016 30 845 24.95 7.1 44.8 63 0.5 32.9
22:30 1016 30 845 24.95 7 44.6 63 0.5 32.8
22:35 1016 30 845 24.95 6.8 44.3 64 0.5 32.9
22:40 1016 30 845 24.95 6.7 44 64 0.5 32.8
22:45 1016 30 846 24.98 6.5 43.8 65 0.5 32.8
22:50 1016 30 846 24.98 6.4 43.5 66 0.5 32.9
22:55 1016 30 846 24.98 6.3 43.4 66 0.4 32.7
23:00 1016 30 846 24.98 6.3 43.4 66 0.5 32.9
23:05 1016 30 846 24.98 6.2 43.2 66 0.4 32.7
23:10 1016 30 846 24.98 6.1 43 67 0.5 32.9
23:15 1017 30.03 846 24.98 5.9 42.7 68 0.4 32.7
23:20 1017 30.03 846 24.98 5.9 42.6 68 0.4 32.8
23:25 1017 30.03 846 24.98 5.8 42.4 68 0.4 32.8
23:30 1017 30.03 846 24.98 5.6 42.1 69 0.5 32.9
23:35 1017 30.03 846 24.98 5.5 41.9 70 0.5 32.9
23:40 1017 30.03 846 24.98 5.4 41.8 71 0.5 33
23:45 1017 30.03 846 24.98 5.3 41.5 71 0.5 32.8
23:50 1017 30.03 846 24.98 5.2 41.3 72 0.5 32.9
23:55 1017 30.03 846 24.98 5.1 41.1 72 0.5 32.9
24:00 1017 30.03 846 24.98 5 41.1 73 0.5 33